August 14, 2022

Time Code Weather Temp. Visibility Ceiling Wind METAR/SPECI
1:15 am
V
72 °F 7 mi - Var 000° 0 kt METAR KPXE 140515Z AUTO 00000KT 7SM BR CLR 22/22 A3006 RMK AO2 T02180217
12:55 am
V
72 °F 7 mi - Var 000° 0 kt METAR KPXE 140455Z AUTO 00000KT 7SM CLR 22/22 A3006 RMK AO2 T02180216
12:35 am
V
72 °F 10 mi - Var 000° 0 kt METAR KPXE 140435Z AUTO 00000KT 10SM CLR 22/21 A3006 RMK AO2 T02160215
12:15 am
V
72 °F 7 mi - Var 000° 0 kt METAR KPXE 140415Z AUTO 00000KT 7SM CLR 22/22 A3006 RMK AO2 T02210219

August 13, 2022

Time Code Weather Temp. Visibility Ceiling Wind METAR/SPECI
11:55 pm
V
72 °F 10 mi - Var 000° 0 kt METAR KPXE 140355Z AUTO 00000KT 10SM CLR 22/22 A3006 RMK AO2 T02210218
11:35 pm
V
72 °F 10 mi - Var 000° 0 kt METAR KPXE 140335Z AUTO 00000KT 10SM CLR 22/22 A3006 RMK AO2 T02240220
11:15 pm
V
73 °F 10 mi - Var 000° 0 kt METAR KPXE 140315Z AUTO 00000KT 10SM CLR 23/22 A3006 RMK AO2 T02260223
10:55 pm
V
73 °F 7 mi - Var 000° 0 kt METAR KPXE 140255Z AUTO 00000KT 7SM CLR 23/22 A3006 RMK AO2 T02260223
10:35 pm
V
73 °F 10 mi - Var 000° 0 kt METAR KPXE 140235Z AUTO 00000KT 10SM CLR 23/23 A3006 RMK AO2 T02300226
10:15 pm
V
73 °F 10 mi - Var 000° 0 kt METAR KPXE 140215Z AUTO 00000KT 10SM CLR 23/22 A3005 RMK AO2 T02310224
9:55 pm
V
73 °F 10 mi - Var 000° 0 kt METAR KPXE 140155Z AUTO 00000KT 10SM CLR 23/23 A3005 RMK AO2 T02310226
9:35 pm
V
73 °F 10 mi - Var 000° 0 kt METAR KPXE 140135Z AUTO 00000KT 10SM CLR 23/23 A3005 RMK AO2 LTG DSNT SW T02330227
9:15 pm
V
75 °F 10 mi - Var 000° 0 kt METAR KPXE 140115Z AUTO 00000KT 10SM CLR 24/23 A3005 RMK AO2 LTG DSNT SW T02390231
8:55 pm
V
75 °F 10 mi - Var 000° 0 kt METAR KPXE 140055Z AUTO 00000KT 10SM CLR 24/22 A3005 RMK AO2 LTG DSNT SW T02410224
8:35 pm
V
77 °F 10 mi - Var 000° 0 kt METAR KPXE 140035Z AUTO 00000KT 10SM CLR 25/22 A3004 RMK AO2 LTG DSNT SW T02510220
8:15 pm
V
79 °F 10 mi - 090° 090° 3 kt METAR KPXE 140015Z AUTO 09003KT 10SM CLR 26/22 A3004 RMK AO2 T02620217
7:55 pm
V
82 °F 10 mi - 080° 080° 4 kt METAR KPXE 132355Z AUTO 08004KT 10SM CLR 28/20 A3003 RMK AO2 T02760204 10308 20275 403080213
7:35 pm
V
84 °F 10 mi - 080° 080° 4 kt METAR KPXE 132335Z AUTO 08004KT 10SM CLR 29/20 A3002 RMK AO2 T02860202
7:15 pm
V
84 °F 10 mi - 080° 080° 5 kt METAR KPXE 132315Z AUTO 08005KT 10SM CLR 29/20 A3002 RMK AO2 T02920199
6:55 pm
V
86 °F 10 mi - 070° 070° 4 kt METAR KPXE 132255Z AUTO 07004KT 10SM CLR 30/20 A3002 RMK AO2 LTG DSNT E T02970204
6:35 pm
V
84 °F 10 mi - 070° 070° 5 kt METAR KPXE 132235Z AUTO 07005KT 10SM SCT042 SCT050 SCT075 29/20 A3002 RMK AO2 T02950203
6:15 pm
V
86 °F 10 mi 4,400 ft 100° 100° 7 kt METAR KPXE 132215Z AUTO 10007KT 10SM BKN044 BKN050 30/20 A3003 RMK AO2 T03000203
5:55 pm
V
86 °F 10 mi - 080° 080° 3 kt METAR KPXE 132155Z AUTO 08003KT 10SM SCT046 SCT085 30/21 A3003 RMK AO2 T03010207
5:35 pm
V
84 °F 10 mi 8,500 ft 070° 070° 4 kt METAR KPXE 132135Z AUTO 07004KT 10SM SCT044 SCT060 BKN085 29/20 A3004 RMK AO2 T02930203
5:15 pm
V
86 °F 10 mi 6,000 ft 080° 080° 4 kt METAR KPXE 132115Z AUTO 08004KT 10SM SCT044 BKN060 BKN075 30/20 A3004 RMK AO2 T03000203
4:55 pm
V
86 °F 10 mi - 110° 110° 4 kt METAR KPXE 132055Z AUTO 11004KT 10SM SCT044 30/20 A3004 RMK AO2 T02960196
4:35 pm
V
86 °F 10 mi - 180° 180° 3 kt METAR KPXE 132035Z AUTO 18003KT 10SM CLR 30/20 A3004 RMK AO2 T02970196
4:15 pm
V
86 °F 7 mi - 110° 110° 7 kt METAR KPXE 132015Z AUTO 11007KT 7SM SCT042 30/19 A3005 RMK AO2 T02980193
3:55 pm
V
86 °F 10 mi - 110° 110° 5 kt METAR KPXE 131955Z AUTO 11005KT 10SM SCT042 30/20 A3005 RMK AO2 T02970196
3:35 pm
V
86 °F 10 mi - 060° 060° 6 kt METAR KPXE 131935Z AUTO 06006KT 10SM SCT040 30/20 A3005 RMK AO2 T02970195
3:15 pm
V
86 °F 10 mi - 130° 130° 6 kt METAR KPXE 131915Z AUTO 13006KT 10SM SCT038 30/20 A3006 RMK AO2 T02950202
2:55 pm
V
84 °F 10 mi - 100° 100° 5 kt METAR KPXE 131855Z AUTO 10005KT 10SM SCT038 29/20 A3006 RMK AO2 T02920200
2:35 pm
V
84 °F 10 mi - 130° 130° 6 kt METAR KPXE 131835Z AUTO 13006KT 10SM CLR 29/20 A3007 RMK AO2 T02910203
2:15 pm
V
84 °F 10 mi - 100° 100° 6 kt METAR KPXE 131815Z AUTO 10006KT 10SM SCT033 29/20 A3008 RMK AO2 LTG DSNT SE T02880203
1:55 pm
V
82 °F 10 mi - 120° 120° 7 kt METAR KPXE 131755Z AUTO 12007KT 10SM SCT033 28/21 A3009 RMK AO2 T02830205 10288 20215
1:35 pm
V
82 °F 10 mi 3,100 ft 100° 100° 7 kt METAR KPXE 131735Z AUTO 10007KT 10SM BKN031 28/21 A3009 RMK AO2 T02810206
1:15 pm
M
82 °F 10 mi 2,900 ft 110° 110° 8 kt METAR KPXE 131715Z AUTO 11008KT 10SM BKN029 28/20 A3010 RMK AO2 T02770202
12:55 pm
M
81 °F 10 mi 2,900 ft 110° 110° 5 kt METAR KPXE 131655Z AUTO 11005KT 10SM BKN029 27/21 A3010 RMK AO2 T02710209
12:35 pm
M
81 °F 10 mi 2,500 ft 090° 090° 7 kt METAR KPXE 131635Z AUTO 09007KT 10SM BKN025 27/21 A3011 RMK AO2 T02730210
12:15 pm
M
79 °F 10 mi 2,500 ft 050° 050° 9 kt METAR KPXE 131615Z AUTO 05009KT 10SM OVC025 26/21 A3011 RMK AO2 T02650206
11:55 am
M
81 °F 10 mi 2,300 ft 050° 050° 8 kt METAR KPXE 131555Z AUTO 05008KT 10SM OVC023 27/21 A3011 RMK AO2 T02690211
11:35 am
M
79 °F 10 mi 1,900 ft 040° 040° 7 kt METAR KPXE 131535Z AUTO 04007KT 10SM BKN019 BKN085 26/21 A3012 RMK AO2 T02620213
11:15 am
M
77 °F 10 mi 1,700 ft 060° 060° 7 kt METAR KPXE 131515Z AUTO 06007KT 10SM BKN017 OVC022 25/21 A3012 RMK AO2 T02520210
10:55 am
M
75 °F 10 mi 1,400 ft 060° 060° 6 kt METAR KPXE 131455Z AUTO 06006KT 10SM BKN014 OVC021 24/21 A3011 RMK AO2 T02430209
10:35 am
M
73 °F 10 mi 1,400 ft 100° 100° 8 kt METAR KPXE 131435Z AUTO 10008KT 10SM OVC014 23/21 A3011 RMK AO2 LTG DSNT E T02340207
10:15 am
M
73 °F 10 mi 1,200 ft 070° 070° 9 kt METAR KPXE 131415Z AUTO 07009KT 030V090 10SM OVC012 23/21 A3010 RMK AO2 LTG DSNT E T02310206
9:55 am
M
73 °F 10 mi 1,200 ft 070° 070° 6 kt METAR KPXE 131355Z AUTO 07006KT 10SM OVC012 23/21 A3010 RMK AO2 T02290210
9:35 am
M
73 °F 10 mi 1,000 ft 060° 060° 8 kt METAR KPXE 131335Z AUTO 06008KT 10SM BKN010 OVC016 23/21 A3009 RMK AO2 T02290212
9:15 am
M
72 °F 10 mi 1,600 ft 070° 070° 6 kt METAR KPXE 131315Z AUTO 07006KT 10SM SCT009 OVC016 22/21 A3009 RMK AO2 T02240214
8:55 am
I
72 °F 10 mi 700 ft 060° 060° 5 kt METAR KPXE 131255Z AUTO 06005KT 10SM OVC007 22/21 A3008 RMK AO2 T02170214
8:35 am
I
72 °F 3½ mi 500 ft 050° 050° 5 kt METAR KPXE 131235Z AUTO 05005KT 3 1/2SM BR OVC005 22/22 A3007 RMK AO2 T02160215
8:15 am
I
72 °F 5 mi 500 ft 040° 040° 7 kt METAR KPXE 131215Z AUTO 04007KT 5SM BR BKN005 OVC010 22/22 A3007 RMK AO2 T02160216
7:55 am
L
72 °F 4 mi 300 ft 050° 050° 5 kt METAR KPXE 131155Z AUTO 05005KT 4SM BR OVC003 22/21 A3006 RMK AO2 T02150215 10227 20213 60001 70085
7:35 am
L
70 °F 7 mi 300 ft 060° 060° 8 kt METAR KPXE 131135Z AUTO 06008KT 7SM BR OVC003 21/21 A3006 RMK AO2 T02140214
7:15 am
L
72 °F 10 mi 300 ft 060° 060° 8 kt METAR KPXE 131115Z AUTO 06008KT 10SM OVC003 22/22 A3005 RMK AO2 T02180218
6:55 am
L
72 °F 7 mi 300 ft 070° 070° 7 kt METAR KPXE 131055Z AUTO 07007KT 7SM HZ OVC003 22/ A3004 RMK AO2 T0222////
6:35 am
L
72 °F 3½ mi 300 ft 070° 070° 7 kt METAR KPXE 131035Z AUTO 07007KT 3 1/2SM BR OVC003 22/ A3003 RMK AO2 T0224////
6:15 am
L
73 °F ¾ mi 300 ft 060° 060° 7 kt METAR KPXE 131015Z AUTO 06007KT 3/4SM BR OVC003 23/ A3002 RMK AO2 T0226////
5:55 am
L
73 °F ¾ mi 300 ft 050° 050° 7 kt METAR KPXE 130955Z AUTO 05007KT 3/4SM BR OVC003 23/ A3002 RMK AO2 T0227////
5:35 am
L
72 °F ¼ mi 300 ft 030° 030° 5 kt METAR KPXE 130935Z AUTO 03005KT 1/4SM FG OVC003 22/ A3002 RMK AO2 T0224////
5:15 am
L
72 °F ½ mi 300 ft 060° 060° 3 kt METAR KPXE 130915Z AUTO 06003KT 1/2SM FG OVC003 22/22 A3002 RMK AO2 T02230223
4:55 am
L
72 °F 7 mi 300 ft 030° 030° 3 kt METAR KPXE 130855Z AUTO 03003KT 7SM BR OVC003 22/22 A3002 RMK AO2 T02230223 60001
4:35 am
L
72 °F 5 mi 300 ft 010° 010° 4 kt METAR KPXE 130835Z AUTO 01004KT 5SM HZ BKN003 22/ A3001 RMK AO2 T0222////
4:15 am
V
72 °F 7 mi - 020° 020° 5 kt METAR KPXE 130815Z AUTO 02005KT 7SM SCT005 22/22 A3002 RMK AO2 T02180218
3:55 am
V
72 °F 5 mi - 360° 360° 3 kt METAR KPXE 130755Z AUTO 36003KT 5SM BR SCT005 22/22 A3001 RMK AO2 P0001 T02200220
3:35 am
V
72 °F 10 mi - Var 000° 0 kt METAR KPXE 130735Z AUTO 00000KT 10SM CLR 22/22 A3001 RMK AO2 P0001 T02210221
3:15 am
V
72 °F 7 mi - 300° 300° 3 kt METAR KPXE 130715Z AUTO 30003KT 7SM CLR 22/22 A3000 RMK AO2 T02220222
2:55 am
V
72 °F 10 mi - Var 000° 0 kt METAR KPXE 130655Z AUTO 00000KT 10SM CLR 22/22 A3001 RMK AO2 T02230222
2:35 am
V
72 °F 10 mi 10,000 ft Var 000° 0 kt METAR KPXE 130635Z AUTO 00000KT 10SM BKN100 22/22 A3001 RMK AO2 T02240223
2:15 am
V
72 °F 10 mi 10,000 ft Var 000° 0 kt METAR KPXE 130615Z AUTO 00000KT 10SM BKN100 22/22 A3001 RMK AO2 T02240224
1:55 am
V
72 °F 10 mi 9,000 ft Var 000° 0 kt METAR KPXE 130555Z AUTO 00000KT 10SM BKN090 22/22 A3001 RMK AO2 T02240223 10252 20224 60024
1:35 am
V
73 °F 10 mi - Var 000° 0 kt METAR KPXE 130535Z AUTO 00000KT 10SM SCT090 23/22 A3001 RMK AO2 T02260225
1:15 am
V
73 °F 10 mi - Var 000° 0 kt METAR KPXE 130515Z AUTO 00000KT 10SM SCT090 23/22 A3002 RMK AO2 T02260225
12:55 am
V
73 °F 10 mi 10,000 ft 050° 050° 3 kt METAR KPXE 130455Z AUTO 05003KT 10SM SCT080 BKN100 23/23 A3002 RMK AO2 T02270225
12:35 am
V
73 °F 10 mi 9,000 ft Var 000° 0 kt METAR KPXE 130435Z AUTO 00000KT 10SM BKN090 23/22 A3002 RMK AO2 T02260224
12:15 am
V
73 °F 10 mi 11,000 ft 070° 070° 4 kt METAR KPXE 130415Z AUTO 07004KT 10SM SCT090 BKN110 23/23 A3002 RMK AO2 LTG DSNT W T02270225

August 12, 2022

Time Code Weather Temp. Visibility Ceiling Wind METAR/SPECI
11:55 pm
V
73 °F 10 mi 12,000 ft 080° 080° 6 kt METAR KPXE 130355Z AUTO 08006KT 10SM SCT080 BKN120 23/23 A3002 RMK AO2 T02320227
11:35 pm
V
73 °F 10 mi 8,000 ft 220° 220° 3 kt METAR KPXE 130335Z AUTO 22003KT 10SM BKN080 OVC120 23/23 A3002 RMK AO2 T02320227
11:15 pm
V
73 °F 10 mi 7,000 ft 240° 240° 7 kt METAR KPXE 130315Z AUTO 24007KT 10SM -RA BKN070 OVC090 23/23 A3002 RMK AO2 T02300227
10:55 pm
V
73 °F 10 mi 8,000 ft 260° 260° 10 kt METAR KPXE 130255Z AUTO 26010KT 10SM -RA SCT048 BKN080 OVC085 23/22 A3003 RMK AO2 P0024 T02290225 60024
10:35 pm
V
73 °F 7 mi 7,500 ft 300° 300° 7 kt METAR KPXE 130235Z AUTO 30007KT 7SM -RA BR SCT038 SCT050 OVC075 23/22 A3004 RMK AO2 LTG DSNT E AND W P0022 T02260223
10:15 pm
M
73 °F 5 mi 2,900 ft 010° 010° 10 kt METAR KPXE 130215Z AUTO 01010KT 5SM +TSRA BR SCT017 BKN029 OVC065 23/22 A3003 RMK AO2 LTG DSNT SW P0010 T02280222
9:55 pm
V
75 °F 7 mi 6,500 ft 360° 360° 22 - 29 kt METAR KPXE 130155Z AUTO 36022G29KT 7SM SCT013 SCT042 BKN065 24/23 A3002 RMK AO2 LTG DSNT W THRU NE T02420227
9:35 pm
L
75 °F ¾ mi 5,000 ft 240° 240° 5 kt METAR KPXE 130135Z AUTO 24005KT 3/4SM BR SCT045 BKN050 OVC065 24/23 A3000 RMK AO2 LTG DSNT N AND W T02430234
9:15 pm
V
75 °F 10 mi 6,500 ft 240° 240° 6 kt METAR KPXE 130115Z AUTO 24006KT 10SM SCT045 SCT050 BKN065 24/24 A2999 RMK AO2 LTG DSNT SE T02440242
8:55 pm
V
77 °F 10 mi - Var 000° 0 kt METAR KPXE 130055Z AUTO 00000KT 10SM SCT065 25/24 A2999 RMK AO2 LTG DSNT E SE AND W T02450242
8:35 pm
V
77 °F 10 mi - Var 000° 0 kt METAR KPXE 130035Z AUTO 00000KT 10SM CLR 25/24 A3000 RMK AO2 LTG DSNT E T02460242
8:15 pm
V
77 °F 10 mi - Var 000° 0 kt METAR KPXE 130015Z AUTO 00000KT 10SM SCT110 25/24 A2998 RMK AO2 LTG DSNT E AND SW T02490243
7:55 pm
V
77 °F 10 mi - Var 000° 0 kt METAR KPXE 122355Z AUTO 00000KT 10SM SCT110 25/24 A2998 RMK AO2 T02500237 10310 20238 403100227 60060
7:35 pm
V
77 °F 10 mi 10,000 ft 170° 170° 3 kt METAR KPXE 122335Z AUTO 17003KT 10SM BKN100 25/23 A2998 RMK AO2 LTG DSNT NE AND E T02530234
7:15 pm
V
79 °F 10 mi 9,000 ft 230° 230° 4 kt METAR KPXE 122315Z AUTO 23004KT 10SM OVC090 26/23 A2998 RMK AO2 LTG DSNT SE AND SW T02570225
6:55 pm
V
77 °F 10 mi 9,000 ft Var 000° 0 kt METAR KPXE 122255Z AUTO 00000KT 10SM -RA SCT014 SCT040 OVC090 25/23 A2998 RMK AO2 LTG DSNT NE SW AND W P0057 T02500227
6:35 pm
I
77 °F 2 mi 2,900 ft 260° 260° 15 - 21 kt METAR KPXE 122235Z AUTO 26015G21KT 2SM +TSRA BR SCT014 BKN029 OVC039 25/22 A2998 RMK AO2 VIS 1 1/4V5 LTG DSNT ALQDS P0040 T02460220
6:15 pm
V
79 °F 10 mi 4,100 ft 010° 010° 14 - 20 kt METAR KPXE 122215Z AUTO 01014G20KT 10SM SCT030 BKN041 OVC060 26/22 A2998 RMK AO2 LTG DSNT E W AND NW T02610220
5:55 pm
V
84 °F 10 mi 4,900 ft 030° 030° 10 kt METAR KPXE 122155Z AUTO 03010KT 10SM SCT041 BKN049 BKN065 29/23 A2998 RMK AO2 LTG DSNT E AND SE T02900234
5:35 pm
V
84 °F 10 mi 6,500 ft 290° 290° 4 kt METAR KPXE 122135Z AUTO 29004KT 10SM SCT049 BKN065 29/23 A2998 RMK AO2 LTG DSNT E T02850235
5:15 pm
V
84 °F 10 mi - 250° 250° 6 kt METAR KPXE 122115Z AUTO 25006KT 10SM SCT065 SCT100 SCT120 29/23 A2998 RMK AO2 LTG DSNT E T02900230
4:55 pm
V
86 °F 10 mi 9,500 ft 250° 250° 8 kt METAR KPXE 122055Z AUTO 25008KT 10SM BKN095 BKN120 30/24 A2998 RMK AO2 LTG DSNT N AND NE T03010236 60003
4:35 pm
V
84 °F 10 mi - 210° 210° 6 kt METAR KPXE 122035Z AUTO 21006KT 10SM SCT095 SCT110 29/23 A2999 RMK AO2 LTG DSNT E T02950233
4:15 pm
V
86 °F 10 mi - 220° 220° 5 kt METAR KPXE 122015Z AUTO 22005KT 10SM SCT100 30/24 A2999 RMK AO2 T02960242
3:55 pm
V
84 °F 10 mi - 240° 240° 5 kt METAR KPXE 121955Z AUTO 24005KT 10SM SCT100 29/23 A3000 RMK AO2 T02880232
3:35 pm
V
84 °F 10 mi 10,000 ft 210° 210° 5 kt METAR KPXE 121935Z AUTO 21005KT 10SM SCT070 BKN100 29/25 A3000 RMK AO2 T02930245
3:15 pm
V
81 °F 10 mi 9,000 ft 220° 220° 5 kt METAR KPXE 121915Z AUTO 22005KT 10SM SCT055 SCT070 BKN090 27/24 A3001 RMK AO2 T02660239
2:55 pm
V
77 °F 10 mi 5,500 ft 230° 230° 8 kt METAR KPXE 121855Z AUTO 23008KT 10SM -RA SCT027 BKN055 OVC080 25/24 A3002 RMK AO2 P0003 T02540236
2:35 pm
V
84 °F 10 mi 9,000 ft 250° 250° 12 - 16 kt METAR KPXE 121835Z AUTO 25012G16KT 10SM SCT028 SCT050 OVC090 29/23 A3002 RMK AO2 T02910229
2:15 pm
V
84 °F 10 mi 10,000 ft 220° 220° 10 kt METAR KPXE 121815Z AUTO 22010KT 10SM SCT031 SCT045 BKN100 29/24 A3002 RMK AO2 T02920235
1:55 pm
V
84 °F 10 mi 10,000 ft 250° 250° 4 kt METAR KPXE 121755Z AUTO 25004KT 10SM SCT031 SCT038 BKN100 29/23 A3002 RMK AO2 T02940227 10303 20229
1:35 pm
V
86 °F 10 mi - 230° 230° 10 kt METAR KPXE 121735Z AUTO 23010KT 10SM SCT031 SCT038 30/23 A3003 RMK AO2 LTG DSNT E AND SW T02980231
1:15 pm
V
84 °F 10 mi - 210° 210° 8 kt METAR KPXE 121715Z AUTO 21008KT 10SM SCT029 SCT050 29/22 A3004 RMK AO2 LTG DSNT SW T02950223
12:55 pm
M
84 °F 10 mi 2,700 ft 280° 280° 6 kt METAR KPXE 121655Z AUTO 28006KT 10SM BKN027 BKN038 BKN050 29/23 A3005 RMK AO2 LTG DSNT E T02860227
12:35 pm
M
82 °F 10 mi 2,500 ft 280° 280° 5 kt METAR KPXE 121635Z AUTO 28005KT 10SM BKN025 28/23 A3006 RMK AO2 LTG DSNT E T02790230
12:15 pm
V
82 °F 10 mi 5,000 ft 250° 250° 5 kt METAR KPXE 121615Z AUTO 25005KT 10SM SCT021 SCT025 BKN050 28/23 A3006 RMK AO2 LTG DSNT E T02820235
11:55 am
V
81 °F 10 mi 6,000 ft 280° 280° 7 kt METAR KPXE 121555Z AUTO 28007KT 10SM SCT018 SCT037 BKN060 27/23 A3007 RMK AO2 LTG DSNT E T02730227
11:35 am
V
81 °F 10 mi - 240° 240° 7 kt METAR KPXE 121535Z AUTO 24007KT 10SM SCT020 SCT032 27/23 A3008 RMK AO2 T02710228
11:15 am
M
81 °F 10 mi 2,000 ft 260° 260° 8 kt METAR KPXE 121515Z AUTO 26008KT 10SM BKN020 BKN026 OVC032 27/22 A3008 RMK AO2 T02690225
10:55 am
M
79 °F 10 mi 2,000 ft 250° 250° 7 kt METAR KPXE 121455Z AUTO 25007KT 10SM BKN020 BKN026 OVC032 26/23 A3008 RMK AO2 LTG DSNT E T02650226
10:35 am
M
79 °F 10 mi 1,800 ft 270° 270° 5 kt METAR KPXE 121435Z AUTO 27005KT 10SM BKN018 OVC023 26/23 A3009 RMK AO2 T02600225
10:15 am
M
79 °F 10 mi 1,500 ft 220° 220° 9 - 15 kt METAR KPXE 121415Z AUTO 22009G15KT 10SM BKN015 BKN023 BKN034 26/23 A3009 RMK AO2 T02600228
9:55 am
M
77 °F 10 mi 1,500 ft 260° 260° 8 kt METAR KPXE 121355Z AUTO 26008KT 10SM OVC015 25/23 A3008 RMK AO2 T02540229
9:35 am
M
77 °F 10 mi 1,200 ft 250° 250° 7 kt METAR KPXE 121335Z AUTO 25007KT 10SM BKN012 OVC020 25/23 A3008 RMK AO2 T02500229
9:15 am
M
77 °F 10 mi 1,000 ft 250° 250° 7 kt METAR KPXE 121315Z AUTO 25007KT 10SM OVC010 25/23 A3008 RMK AO2 T02480228
8:55 am
I
75 °F 10 mi 600 ft 230° 230° 7 kt METAR KPXE 121255Z AUTO 23007KT 10SM OVC006 24/23 A3007 RMK AO2 LTG DSNT E T02380227
8:35 am
I
73 °F 10 mi 600 ft 240° 240° 6 kt METAR KPXE 121235Z AUTO 24006KT 10SM OVC006 23/23 A3007 RMK AO2 LTG DSNT NE T02350227
8:15 am
I
73 °F 10 mi 600 ft 220° 220° 6 kt METAR KPXE 121215Z AUTO 22006KT 10SM OVC006 23/23 A3007 RMK AO2 LTG DSNT E T02320227
7:55 am
L
73 °F 10 mi 400 ft 280° 280° 3 kt METAR KPXE 121155Z AUTO 28003KT 10SM OVC004 23/23 A3007 RMK AO2 T02300226 10232 20227 70075
7:35 am
L
73 °F 10 mi 400 ft 240° 240° 7 kt METAR KPXE 121135Z AUTO 24007KT 10SM OVC004 23/23 A3007 RMK AO2 T02290226
7:15 am
L
73 °F 7 mi 400 ft 230° 230° 8 kt METAR KPXE 121115Z AUTO 23008KT 7SM BR OVC004 23/23 A3007 RMK AO2 T02290227
6:55 am
L
73 °F 5 mi 400 ft 230° 230° 5 kt METAR KPXE 121055Z AUTO 23005KT 5SM BR OVC004 23/23 A3007 RMK AO2 T02300228
6:35 am
L
73 °F 7 mi 400 ft 220° 220° 5 kt METAR KPXE 121035Z AUTO 22005KT 7SM BR OVC004 23/23 A3007 RMK AO2 T02290227
6:15 am
I
73 °F 7 mi 600 ft 230° 230° 3 kt METAR KPXE 121015Z AUTO 23003KT 7SM OVC006 23/23 A3007 RMK AO2 T02290227
5:55 am
I
73 °F 7 mi 600 ft 250° 250° 4 kt METAR KPXE 120955Z AUTO 25004KT 7SM BKN006 OVC013 23/23 A3006 RMK AO2 T02290227
5:35 am
M
73 °F 10 mi 2,600 ft 260° 260° 3 kt METAR KPXE 120935Z AUTO 26003KT 10SM SCT004 BKN026 OVC032 23/23 A3006 RMK AO2 T02280227
5:15 am
M
73 °F 10 mi 2,800 ft 240° 240° 4 kt METAR KPXE 120915Z AUTO 24004KT 10SM SCT005 SCT016 OVC028 23/23 A3005 RMK AO2 T02280227
4:55 am
L
73 °F 10 mi 300 ft 240° 240° 5 kt METAR KPXE 120855Z AUTO 24005KT 10SM BKN003 BKN024 23/23 A3005 RMK AO2 T02270226
4:35 am
L
73 °F 10 mi 300 ft 230° 230° 6 kt METAR KPXE 120835Z AUTO 23006KT 10SM OVC003 23/23 A3005 RMK AO2 T02280228
4:15 am
L
73 °F 7 mi 300 ft 220° 220° 4 kt METAR KPXE 120815Z AUTO 22004KT 7SM BR OVC003 23/23 A3005 RMK AO2 T02290229
3:55 am
L
73 °F 7 mi 300 ft 240° 240° 4 kt METAR KPXE 120755Z AUTO 24004KT 7SM BR OVC003 23/23 A3005 RMK AO2 T02280228
3:35 am
L
73 °F 4 mi 300 ft 210° 210° 5 kt METAR KPXE 120735Z AUTO 21005KT 4SM BR OVC003 23/23 A3005 RMK AO2 T0229////
3:15 am
L
73 °F 1 mi 300 ft 210° 210° 5 kt METAR KPXE 120715Z AUTO 21005KT 1SM BR OVC003 23/23 A3005 RMK AO2 T02290229
2:55 am
L
73 °F 1 mi 300 ft 210° 210° 5 kt METAR KPXE 120655Z AUTO 21005KT 1SM BR OVC003 23/23 A3006 RMK AO2 T02300230
2:30 am
L
73 °F 4 mi 300 ft 220° 220° 4 kt METAR KPXE 120630Z AUTO 22004KT 4SM BR BKN003 23/23 A3006 RMK AO2 T02310230
2:15 am
L
73 °F 4 mi 300 ft 200° 200° 5 kt METAR KPXE 120615Z AUTO 20005KT 4SM BR BKN003 BKN007 23/23 A3006 RMK AO2 T02310230
1:55 am
I
73 °F 7 mi 500 ft 220° 220° 6 kt METAR KPXE 120555Z AUTO 22006KT 7SM BR BKN005 23/23 A3006 RMK AO2 T02320231 10247 20232
1:35 am
I
73 °F 7 mi 500 ft 190° 190° 3 kt METAR KPXE 120535Z AUTO 19003KT 7SM BR OVC005 23/23 A3006 RMK AO2 T02330231
1:15 am
I
73 °F 10 mi 500 ft 210° 210° 3 kt METAR KPXE 120515Z AUTO 21003KT 10SM OVC005 23/23 A3007 RMK AO2 T02330231
12:55 am
I
73 °F 10 mi 500 ft 220° 220° 5 kt METAR KPXE 120455Z AUTO 22005KT 10SM OVC005 23/23 A3007 RMK AO2 T02340231
12:35 am
I
73 °F 10 mi 500 ft 240° 240° 4 kt METAR KPXE 120435Z AUTO 24004KT 10SM OVC005 23/23 A3007 RMK AO2 T02330230
12:15 am
I
73 °F 10 mi 500 ft 220° 220° 3 kt METAR KPXE 120415Z AUTO 22003KT 10SM OVC005 23/23 A3007 RMK AO2 T02340231

August 11, 2022

Time Code Weather Temp. Visibility Ceiling Wind METAR/SPECI
11:55 pm
I
73 °F 10 mi 700 ft 200° 200° 4 kt METAR KPXE 120355Z AUTO 20004KT 10SM OVC007 23/23 A3006 RMK AO2 T02340231
11:35 pm
I
73 °F 10 mi 700 ft 190° 190° 3 kt METAR KPXE 120335Z AUTO 19003KT 10SM OVC007 23/23 A3007 RMK AO2 LTG DSNT NW T02340231
11:15 pm
I
73 °F 10 mi 700 ft 210° 210° 3 kt METAR KPXE 120315Z AUTO 21003KT 10SM OVC007 23/23 A3007 RMK AO2 T02340231
10:55 pm
V
73 °F 10 mi 3,100 ft 190° 190° 4 kt METAR KPXE 120255Z AUTO 19004KT 10SM SCT007 BKN031 BKN041 23/23 A3008 RMK AO2 T02340232
10:35 pm
V
73 °F 10 mi 4,200 ft 200° 200° 5 kt METAR KPXE 120235Z AUTO 20005KT 10SM -RA SCT031 BKN042 BKN050 23/23 A3008 RMK AO2 T02350231
Older data

We and third parties follow your internet behavior on our website with cookies. If you continue, we assume you agree with our cookie policy. Learn more